sensor_id;sensor_type;location;lat;lon;timestamp;P1;durP1;ratioP1;P2;durP2;ratioP2
39300;SDS011;25019;42.626;23.380;2023-11-18T00:02:03;0.70;;;0.60;;
39300;SDS011;25019;42.626;23.380;2023-11-18T00:04:32;0.60;;;0.50;;
39300;SDS011;25019;42.626;23.380;2023-11-18T00:06:58;1.13;;;0.40;;
39300;SDS011;25019;42.626;23.380;2023-11-18T00:09:24;1.27;;;0.77;;
39300;SDS011;25019;42.626;23.380;2023-11-18T00:11:50;1.20;;;0.60;;
39300;SDS011;25019;42.626;23.380;2023-11-18T00:14:15;0.50;;;0.50;;
39300;SDS011;25019;42.626;23.380;2023-11-18T00:16:43;0.50;;;0.50;;
39300;SDS011;25019;42.626;23.380;2023-11-18T00:19:08;0.47;;;0.40;;
39300;SDS011;25019;42.626;23.380;2023-11-18T00:21:34;0.40;;;0.40;;
39300;SDS011;25019;42.626;23.380;2023-11-18T00:24:01;2.07;;;0.43;;
39300;SDS011;25019;42.626;23.380;2023-11-18T00:26:27;0.60;;;0.60;;
39300;SDS011;25019;42.626;23.380;2023-11-18T00:28:57;0.60;;;0.50;;
39300;SDS011;25019;42.626;23.380;2023-11-18T00:31:24;1.27;;;0.70;;
39300;SDS011;25019;42.626;23.380;2023-11-18T00:33:50;0.60;;;0.50;;
39300;SDS011;25019;42.626;23.380;2023-11-18T00:36:15;0.57;;;0.43;;
39300;SDS011;25019;42.626;23.380;2023-11-18T00:38:41;0.50;;;0.47;;
39300;SDS011;25019;42.626;23.380;2023-11-18T00:41:07;0.30;;;0.30;;
39300;SDS011;25019;42.626;23.380;2023-11-18T00:43:32;0.33;;;0.30;;
39300;SDS011;25019;42.626;23.380;2023-11-18T00:45:58;0.70;;;0.40;;
39300;SDS011;25019;42.626;23.380;2023-11-18T00:48:24;0.40;;;0.40;;
39300;SDS011;25019;42.626;23.380;2023-11-18T00:50:50;1.50;;;0.40;;
39300;SDS011;25019;42.626;23.380;2023-11-18T00:53:17;0.40;;;0.40;;
39300;SDS011;25019;42.626;23.380;2023-11-18T00:55:42;0.50;;;0.50;;
39300;SDS011;25019;42.626;23.380;2023-11-18T00:58:08;0.40;;;0.40;;
39300;SDS011;25019;42.626;23.380;2023-11-18T01:00:34;0.70;;;0.70;;
39300;SDS011;25019;42.626;23.380;2023-11-18T01:03:01;0.97;;;0.73;;
39300;SDS011;25019;42.626;23.380;2023-11-18T01:05:27;0.50;;;0.50;;
39300;SDS011;25019;42.626;23.380;2023-11-18T01:07:53;0.60;;;0.60;;
39300;SDS011;25019;42.626;23.380;2023-11-18T01:10:18;0.80;;;0.80;;
39300;SDS011;25019;42.626;23.380;2023-11-18T01:12:44;0.50;;;0.50;;
39300;SDS011;25019;42.626;23.380;2023-11-18T01:15:10;0.93;;;0.73;;
39300;SDS011;25019;42.626;23.380;2023-11-18T01:17:38;0.70;;;0.60;;
39300;SDS011;25019;42.626;23.380;2023-11-18T01:20:04;0.60;;;0.60;;
39300;SDS011;25019;42.626;23.380;2023-11-18T01:22:39;0.73;;;0.73;;
39300;SDS011;25019;42.626;23.380;2023-11-18T01:25:07;1.27;;;0.60;;
39300;SDS011;25019;42.626;23.380;2023-11-18T01:27:34;0.70;;;0.60;;
39300;SDS011;25019;42.626;23.380;2023-11-18T01:30:00;0.63;;;0.63;;
39300;SDS011;25019;42.626;23.380;2023-11-18T01:32:26;0.77;;;0.77;;
39300;SDS011;25019;42.626;23.380;2023-11-18T01:34:51;1.00;;;0.90;;
39300;SDS011;25019;42.626;23.380;2023-11-18T01:37:18;1.07;;;0.97;;
39300;SDS011;25019;42.626;23.380;2023-11-18T01:39:46;0.80;;;0.80;;
39300;SDS011;25019;42.626;23.380;2023-11-18T01:42:12;0.73;;;0.73;;
39300;SDS011;25019;42.626;23.380;2023-11-18T01:44:38;1.13;;;1.10;;
39300;SDS011;25019;42.626;23.380;2023-11-18T01:47:04;1.13;;;1.03;;
39300;SDS011;25019;42.626;23.380;2023-11-18T01:49:33;1.10;;;1.00;;
39300;SDS011;25019;42.626;23.380;2023-11-18T01:52:05;1.17;;;1.07;;
39300;SDS011;25019;42.626;23.380;2023-11-18T01:54:33;1.27;;;1.17;;
39300;SDS011;25019;42.626;23.380;2023-11-18T01:57:03;1.10;;;1.00;;
39300;SDS011;25019;42.626;23.380;2023-11-18T01:59:31;1.30;;;1.13;;
39300;SDS011;25019;42.626;23.380;2023-11-18T02:02:00;1.40;;;1.30;;
39300;SDS011;25019;42.626;23.380;2023-11-18T02:04:27;1.20;;;1.10;;
39300;SDS011;25019;42.626;23.380;2023-11-18T02:06:53;0.93;;;0.87;;
39300;SDS011;25019;42.626;23.380;2023-11-18T02:09:20;1.03;;;0.93;;
39300;SDS011;25019;42.626;23.380;2023-11-18T02:15:05;1.33;;;0.90;;
39300;SDS011;25019;42.626;23.380;2023-11-18T02:17:37;1.10;;;0.90;;
39300;SDS011;25019;42.626;23.380;2023-11-18T02:20:04;1.83;;;0.80;;
39300;SDS011;25019;42.626;23.380;2023-11-18T02:22:44;1.40;;;1.30;;
39300;SDS011;25019;42.626;23.380;2023-11-18T02:25:17;1.10;;;0.87;;
39300;SDS011;25019;42.626;23.380;2023-11-18T02:27:44;1.23;;;1.13;;
39300;SDS011;25019;42.626;23.380;2023-11-18T02:30:11;1.30;;;1.20;;
39300;SDS011;25019;42.626;23.380;2023-11-18T02:32:44;1.30;;;1.07;;
39300;SDS011;25019;42.626;23.380;2023-11-18T02:35:25;1.40;;;1.30;;
39300;SDS011;25019;42.626;23.380;2023-11-18T02:37:53;1.50;;;1.40;;
39300;SDS011;25019;42.626;23.380;2023-11-18T02:40:23;1.27;;;1.17;;
39300;SDS011;25019;42.626;23.380;2023-11-18T02:42:55;1.23;;;1.13;;
39300;SDS011;25019;42.626;23.380;2023-11-18T02:45:24;1.40;;;1.30;;
39300;SDS011;25019;42.626;23.380;2023-11-18T02:47:50;1.50;;;1.20;;
39300;SDS011;25019;42.626;23.380;2023-11-18T02:50:16;1.50;;;1.40;;
39300;SDS011;25019;42.626;23.380;2023-11-18T02:52:44;1.50;;;1.10;;
39300;SDS011;25019;42.626;23.380;2023-11-18T02:55:10;2.17;;;1.53;;
39300;SDS011;25019;42.626;23.380;2023-11-18T02:57:36;1.50;;;0.90;;
39300;SDS011;25019;42.626;23.380;2023-11-18T03:00:05;0.87;;;0.83;;
39300;SDS011;25019;42.626;23.380;2023-11-18T03:02:36;1.77;;;1.33;;
39300;SDS011;25019;42.626;23.380;2023-11-18T03:05:05;1.40;;;1.30;;
39300;SDS011;25019;42.626;23.380;2023-11-18T03:07:40;2.03;;;1.70;;
39300;SDS011;25019;42.626;23.380;2023-11-18T03:10:06;1.57;;;1.07;;
39300;SDS011;25019;42.626;23.380;2023-11-18T03:12:36;3.03;;;1.53;;
39300;SDS011;25019;42.626;23.380;2023-11-18T03:15:04;1.63;;;1.53;;
39300;SDS011;25019;42.626;23.380;2023-11-18T03:17:31;1.80;;;1.53;;
39300;SDS011;25019;42.626;23.380;2023-11-18T03:19:57;2.10;;;1.83;;
39300;SDS011;25019;42.626;23.380;2023-11-18T03:22:23;1.50;;;1.40;;
39300;SDS011;25019;42.626;23.380;2023-11-18T03:24:48;1.60;;;1.50;;
39300;SDS011;25019;42.626;23.380;2023-11-18T03:27:14;1.90;;;1.50;;
39300;SDS011;25019;42.626;23.380;2023-11-18T03:29:40;1.70;;;1.60;;
39300;SDS011;25019;42.626;23.380;2023-11-18T03:32:08;1.90;;;1.67;;
39300;SDS011;25019;42.626;23.380;2023-11-18T03:34:34;1.73;;;1.63;;
39300;SDS011;25019;42.626;23.380;2023-11-18T03:37:00;2.30;;;2.10;;
39300;SDS011;25019;42.626;23.380;2023-11-18T03:39:26;1.57;;;1.47;;
39300;SDS011;25019;42.626;23.380;2023-11-18T03:41:52;1.90;;;1.73;;
39300;SDS011;25019;42.626;23.380;2023-11-18T03:44:18;1.67;;;1.57;;
39300;SDS011;25019;42.626;23.380;2023-11-18T03:46:43;1.50;;;1.40;;
39300;SDS011;25019;42.626;23.380;2023-11-18T03:49:09;1.63;;;1.40;;
39300;SDS011;25019;42.626;23.380;2023-11-18T03:51:35;1.47;;;0.93;;
39300;SDS011;25019;42.626;23.380;2023-11-18T03:54:01;1.73;;;1.63;;
39300;SDS011;25019;42.626;23.380;2023-11-18T03:56:27;1.37;;;1.27;;
39300;SDS011;25019;42.626;23.380;2023-11-18T03:58:52;1.60;;;1.50;;
39300;SDS011;25019;42.626;23.380;2023-11-18T04:01:22;1.87;;;1.50;;
39300;SDS011;25019;42.626;23.380;2023-11-18T04:03:51;6.57;;;1.53;;
39300;SDS011;25019;42.626;23.380;2023-11-18T04:06:17;1.97;;;1.77;;
39300;SDS011;25019;42.626;23.380;2023-11-18T04:08:46;1.57;;;1.47;;
39300;SDS011;25019;42.626;23.380;2023-11-18T04:11:12;1.50;;;1.40;;
39300;SDS011;25019;42.626;23.380;2023-11-18T04:13:39;1.40;;;1.30;;
39300;SDS011;25019;42.626;23.380;2023-11-18T04:16:10;1.90;;;1.23;;
39300;SDS011;25019;42.626;23.380;2023-11-18T04:18:40;2.20;;;1.67;;
39300;SDS011;25019;42.626;23.380;2023-11-18T04:21:07;1.97;;;1.77;;
39300;SDS011;25019;42.626;23.380;2023-11-18T04:23:35;1.50;;;1.30;;
39300;SDS011;25019;42.626;23.380;2023-11-18T04:26:02;1.77;;;1.50;;
39300;SDS011;25019;42.626;23.380;2023-11-18T04:28:29;1.93;;;1.67;;
39300;SDS011;25019;42.626;23.380;2023-11-18T04:30:55;2.00;;;1.67;;
39300;SDS011;25019;42.626;23.380;2023-11-18T04:33:20;1.93;;;1.43;;
39300;SDS011;25019;42.626;23.380;2023-11-18T04:35:46;1.87;;;1.67;;
39300;SDS011;25019;42.626;23.380;2023-11-18T04:38:12;2.23;;;1.63;;
39300;SDS011;25019;42.626;23.380;2023-11-18T04:40:38;2.03;;;1.83;;
39300;SDS011;25019;42.626;23.380;2023-11-18T04:43:06;1.43;;;1.30;;
39300;SDS011;25019;42.626;23.380;2023-11-18T04:45:33;1.70;;;1.53;;
39300;SDS011;25019;42.626;23.380;2023-11-18T04:47:59;2.10;;;1.70;;
39300;SDS011;25019;42.626;23.380;2023-11-18T04:50:25;2.43;;;1.60;;
39300;SDS011;25019;42.626;23.380;2023-11-18T04:52:50;2.13;;;1.57;;
39300;SDS011;25019;42.626;23.380;2023-11-18T04:55:16;2.57;;;1.70;;
39300;SDS011;25019;42.626;23.380;2023-11-18T04:57:42;1.60;;;1.50;;
39300;SDS011;25019;42.626;23.380;2023-11-18T05:00:08;2.17;;;1.63;;
39300;SDS011;25019;42.626;23.380;2023-11-18T05:02:37;2.33;;;1.60;;
39300;SDS011;25019;42.626;23.380;2023-11-18T05:05:04;1.53;;;1.43;;
39300;SDS011;25019;42.626;23.380;2023-11-18T05:07:33;2.10;;;1.50;;
39300;SDS011;25019;42.626;23.380;2023-11-18T05:10:00;1.80;;;1.67;;
39300;SDS011;25019;42.626;23.380;2023-11-18T05:12:26;2.37;;;1.70;;
39300;SDS011;25019;42.626;23.380;2023-11-18T05:14:55;2.00;;;1.80;;
39300;SDS011;25019;42.626;23.380;2023-11-18T05:17:22;1.83;;;1.13;;
39300;SDS011;25019;42.626;23.380;2023-11-18T05:19:48;2.03;;;1.87;;
39300;SDS011;25019;42.626;23.380;2023-11-18T05:22:14;1.30;;;1.20;;
39300;SDS011;25019;42.626;23.380;2023-11-18T05:24:39;1.40;;;1.10;;
39300;SDS011;25019;42.626;23.380;2023-11-18T05:27:05;1.57;;;1.20;;
39300;SDS011;25019;42.626;23.380;2023-11-18T05:29:31;1.23;;;1.10;;
39300;SDS011;25019;42.626;23.380;2023-11-18T05:31:57;1.03;;;0.93;;
39300;SDS011;25019;42.626;23.380;2023-11-18T05:34:23;0.80;;;0.80;;
39300;SDS011;25019;42.626;23.380;2023-11-18T05:36:49;1.60;;;1.00;;
39300;SDS011;25019;42.626;23.380;2023-11-18T05:39:20;1.27;;;0.90;;
39300;SDS011;25019;42.626;23.380;2023-11-18T05:41:47;1.10;;;1.00;;
39300;SDS011;25019;42.626;23.380;2023-11-18T05:44:15;1.10;;;1.00;;
39300;SDS011;25019;42.626;23.380;2023-11-18T05:46:45;1.30;;;1.20;;
39300;SDS011;25019;42.626;23.380;2023-11-18T05:49:16;1.30;;;0.97;;
39300;SDS011;25019;42.626;23.380;2023-11-18T05:51:43;0.63;;;0.63;;
39300;SDS011;25019;42.626;23.380;2023-11-18T05:54:09;36.63;;;2.60;;
39300;SDS011;25019;42.626;23.380;2023-11-18T05:56:35;0.87;;;0.70;;
39300;SDS011;25019;42.626;23.380;2023-11-18T05:59:01;0.80;;;0.50;;
39300;SDS011;25019;42.626;23.380;2023-11-18T06:01:31;3.03;;;0.70;;
39300;SDS011;25019;42.626;23.380;2023-11-18T06:03:57;0.90;;;0.70;;
39300;SDS011;25019;42.626;23.380;2023-11-18T06:06:24;0.70;;;0.70;;
39300;SDS011;25019;42.626;23.380;2023-11-18T06:08:49;0.70;;;0.70;;
39300;SDS011;25019;42.626;23.380;2023-11-18T06:11:16;0.83;;;0.83;;
39300;SDS011;25019;42.626;23.380;2023-11-18T06:13:50;0.57;;;0.57;;
39300;SDS011;25019;42.626;23.380;2023-11-18T06:16:20;1.23;;;0.90;;
39300;SDS011;25019;42.626;23.380;2023-11-18T06:18:48;1.60;;;0.40;;
39300;SDS011;25019;42.626;23.380;2023-11-18T06:21:17;0.40;;;0.40;;
39300;SDS011;25019;42.626;23.380;2023-11-18T06:23:44;0.60;;;0.43;;
39300;SDS011;25019;42.626;23.380;2023-11-18T06:26:11;0.50;;;0.50;;
39300;SDS011;25019;42.626;23.380;2023-11-18T06:28:43;0.47;;;0.47;;
39300;SDS011;25019;42.626;23.380;2023-11-18T06:31:10;0.73;;;0.70;;
39300;SDS011;25019;42.626;23.380;2023-11-18T06:33:37;0.70;;;0.60;;
39300;SDS011;25019;42.626;23.380;2023-11-18T06:38:38;0.93;;;0.50;;
39300;SDS011;25019;42.626;23.380;2023-11-18T06:41:06;0.70;;;0.70;;
39300;SDS011;25019;42.626;23.380;2023-11-18T06:43:36;0.93;;;0.60;;
39300;SDS011;25019;42.626;23.380;2023-11-18T06:46:20;0.80;;;0.60;;
39300;SDS011;25019;42.626;23.380;2023-11-18T06:48:47;0.50;;;0.43;;
39300;SDS011;25019;42.626;23.380;2023-11-18T06:51:20;0.50;;;0.50;;
39300;SDS011;25019;42.626;23.380;2023-11-18T06:53:55;0.53;;;0.50;;
39300;SDS011;25019;42.626;23.380;2023-11-18T06:56:24;0.37;;;0.37;;
39300;SDS011;25019;42.626;23.380;2023-11-18T06:58:50;0.60;;;0.33;;
39300;SDS011;25019;42.626;23.380;2023-11-18T07:01:16;0.40;;;0.30;;
39300;SDS011;25019;42.626;23.380;2023-11-18T07:03:46;0.43;;;0.43;;
39300;SDS011;25019;42.626;23.380;2023-11-18T07:06:17;0.40;;;0.40;;
39300;SDS011;25019;42.626;23.380;2023-11-18T07:08:52;0.70;;;0.50;;
39300;SDS011;25019;42.626;23.380;2023-11-18T07:11:19;1.00;;;0.60;;
39300;SDS011;25019;42.626;23.380;2023-11-18T07:13:47;1.90;;;0.67;;
39300;SDS011;25019;42.626;23.380;2023-11-18T07:16:22;2.33;;;0.50;;
39300;SDS011;25019;42.626;23.380;2023-11-18T07:18:49;0.87;;;0.40;;
39300;SDS011;25019;42.626;23.380;2023-11-18T07:21:14;0.60;;;0.50;;
39300;SDS011;25019;42.626;23.380;2023-11-18T07:23:40;0.87;;;0.57;;
39300;SDS011;25019;42.626;23.380;2023-11-18T07:26:08;1.10;;;0.60;;
39300;SDS011;25019;42.626;23.380;2023-11-18T07:28:35;0.80;;;0.80;;
39300;SDS011;25019;42.626;23.380;2023-11-18T07:31:01;1.23;;;0.60;;
39300;SDS011;25019;42.626;23.380;2023-11-18T07:33:30;0.50;;;0.50;;
39300;SDS011;25019;42.626;23.380;2023-11-18T07:35:59;0.60;;;0.60;;
39300;SDS011;25019;42.626;23.380;2023-11-18T07:38:25;0.50;;;0.50;;
39300;SDS011;25019;42.626;23.380;2023-11-18T07:40:52;0.80;;;0.50;;
39300;SDS011;25019;42.626;23.380;2023-11-18T07:43:21;1.60;;;1.00;;
39300;SDS011;25019;42.626;23.380;2023-11-18T07:45:47;0.87;;;0.63;;
39300;SDS011;25019;42.626;23.380;2023-11-18T07:48:18;0.50;;;0.50;;
39300;SDS011;25019;42.626;23.380;2023-11-18T07:50:45;0.40;;;0.40;;
39300;SDS011;25019;42.626;23.380;2023-11-18T07:53:12;0.57;;;0.40;;
39300;SDS011;25019;42.626;23.380;2023-11-18T07:55:39;0.80;;;0.50;;
39300;SDS011;25019;42.626;23.380;2023-11-18T07:58:07;0.70;;;0.40;;
39300;SDS011;25019;42.626;23.380;2023-11-18T08:00:43;1.03;;;0.50;;
39300;SDS011;25019;42.626;23.380;2023-11-18T08:03:11;1.37;;;0.40;;
39300;SDS011;25019;42.626;23.380;2023-11-18T08:05:41;0.87;;;0.60;;
39300;SDS011;25019;42.626;23.380;2023-11-18T08:08:09;0.87;;;0.43;;
39300;SDS011;25019;42.626;23.380;2023-11-18T08:10:38;0.40;;;0.40;;
39300;SDS011;25019;42.626;23.380;2023-11-18T08:13:05;1.13;;;0.50;;
39300;SDS011;25019;42.626;23.380;2023-11-18T08:15:33;0.83;;;0.60;;
39300;SDS011;25019;42.626;23.380;2023-11-18T08:18:00;0.50;;;0.50;;
39300;SDS011;25019;42.626;23.380;2023-11-18T08:20:26;1.33;;;0.60;;
39300;SDS011;25019;42.626;23.380;2023-11-18T08:22:52;0.40;;;0.40;;
39300;SDS011;25019;42.626;23.380;2023-11-18T08:25:18;1.00;;;0.67;;
39300;SDS011;25019;42.626;23.380;2023-11-18T08:27:44;0.47;;;0.47;;
39300;SDS011;25019;42.626;23.380;2023-11-18T08:30:12;0.57;;;0.57;;
39300;SDS011;25019;42.626;23.380;2023-11-18T08:32:39;0.70;;;0.50;;
39300;SDS011;25019;42.626;23.380;2023-11-18T08:35:05;1.70;;;0.60;;
39300;SDS011;25019;42.626;23.380;2023-11-18T08:37:38;0.67;;;0.40;;
39300;SDS011;25019;42.626;23.380;2023-11-18T08:40:04;0.30;;;0.30;;
39300;SDS011;25019;42.626;23.380;2023-11-18T08:42:48;0.60;;;0.50;;
39300;SDS011;25019;42.626;23.380;2023-11-18T08:45:17;0.40;;;0.40;;
39300;SDS011;25019;42.626;23.380;2023-11-18T08:47:47;2.03;;;0.40;;
39300;SDS011;25019;42.626;23.380;2023-11-18T08:50:14;1.10;;;0.40;;
39300;SDS011;25019;42.626;23.380;2023-11-18T08:52:44;9.03;;;1.07;;
39300;SDS011;25019;42.626;23.380;2023-11-18T08:55:12;0.67;;;0.50;;
39300;SDS011;25019;42.626;23.380;2023-11-18T08:57:51;0.30;;;0.30;;
39300;SDS011;25019;42.626;23.380;2023-11-18T09:00:31;0.40;;;0.40;;
39300;SDS011;25019;42.626;23.380;2023-11-18T09:03:31;0.33;;;0.33;;
39300;SDS011;25019;42.626;23.380;2023-11-18T09:06:01;0.50;;;0.50;;
39300;SDS011;25019;42.626;23.380;2023-11-18T09:08:35;0.50;;;0.50;;
39300;SDS011;25019;42.626;23.380;2023-11-18T09:11:07;0.27;;;0.27;;
39300;SDS011;25019;42.626;23.380;2023-11-18T09:13:41;0.30;;;0.30;;
39300;SDS011;25019;42.626;23.380;2023-11-18T09:16:08;1.10;;;0.47;;
39300;SDS011;25019;42.626;23.380;2023-11-18T09:18:37;0.93;;;0.70;;
39300;SDS011;25019;42.626;23.380;2023-11-18T09:21:04;0.70;;;0.30;;
39300;SDS011;25019;42.626;23.380;2023-11-18T09:23:31;0.73;;;0.50;;
39300;SDS011;25019;42.626;23.380;2023-11-18T09:25:58;0.40;;;0.40;;
39300;SDS011;25019;42.626;23.380;2023-11-18T09:28:24;2.07;;;0.80;;
39300;SDS011;25019;42.626;23.380;2023-11-18T09:30:50;0.30;;;0.30;;
39300;SDS011;25019;42.626;23.380;2023-11-18T09:33:20;1.90;;;0.50;;
39300;SDS011;25019;42.626;23.380;2023-11-18T09:35:57;0.73;;;0.60;;
39300;SDS011;25019;42.626;23.380;2023-11-18T09:38:27;0.40;;;0.40;;
39300;SDS011;25019;42.626;23.380;2023-11-18T09:40:56;3.97;;;0.60;;
39300;SDS011;25019;42.626;23.380;2023-11-18T09:43:31;0.60;;;0.60;;
39300;SDS011;25019;42.626;23.380;2023-11-18T09:46:13;2.20;;;0.57;;
39300;SDS011;25019;42.626;23.380;2023-11-18T09:49:12;1.30;;;1.00;;
39300;SDS011;25019;42.626;23.380;2023-11-18T09:51:50;0.20;;;0.20;;
39300;SDS011;25019;42.626;23.380;2023-11-18T09:57:32;0.73;;;0.50;;
39300;SDS011;25019;42.626;23.380;2023-11-18T10:00:03;0.50;;;0.50;;
39300;SDS011;25019;42.626;23.380;2023-11-18T10:02:50;0.30;;;0.30;;
39300;SDS011;25019;42.626;23.380;2023-11-18T10:05:16;0.70;;;0.50;;
39300;SDS011;25019;42.626;23.380;2023-11-18T10:07:46;2.13;;;0.60;;
39300;SDS011;25019;42.626;23.380;2023-11-18T10:10:14;0.87;;;0.40;;
39300;SDS011;25019;42.626;23.380;2023-11-18T10:12:44;0.40;;;0.30;;
39300;SDS011;25019;42.626;23.380;2023-11-18T10:15:11;1.33;;;0.70;;
39300;SDS011;25019;42.626;23.380;2023-11-18T10:17:41;0.63;;;0.60;;
39300;SDS011;25019;42.626;23.380;2023-11-18T10:20:21;0.53;;;0.43;;
39300;SDS011;25019;42.626;23.380;2023-11-18T10:23:06;0.50;;;0.50;;
39300;SDS011;25019;42.626;23.380;2023-11-18T10:25:44;0.50;;;0.47;;
39300;SDS011;25019;42.626;23.380;2023-11-18T10:28:27;0.93;;;0.77;;
39300;SDS011;25019;42.626;23.380;2023-11-18T10:30:57;1.27;;;0.40;;
39300;SDS011;25019;42.626;23.380;2023-11-18T10:33:38;1.00;;;0.60;;
39300;SDS011;25019;42.626;23.380;2023-11-18T10:36:17;2.27;;;0.60;;
39300;SDS011;25019;42.626;23.380;2023-11-18T10:38:50;0.50;;;0.50;;
39300;SDS011;25019;42.626;23.380;2023-11-18T10:41:20;2.57;;;0.70;;
39300;SDS011;25019;42.626;23.380;2023-11-18T10:43:47;0.40;;;0.40;;
39300;SDS011;25019;42.626;23.380;2023-11-18T10:46:14;0.60;;;0.40;;
39300;SDS011;25019;42.626;23.380;2023-11-18T10:48:42;0.57;;;0.40;;
39300;SDS011;25019;42.626;23.380;2023-11-18T10:51:19;0.70;;;0.70;;
39300;SDS011;25019;42.626;23.380;2023-11-18T10:53:49;0.50;;;0.50;;
39300;SDS011;25019;42.626;23.380;2023-11-18T10:56:29;0.73;;;0.60;;
39300;SDS011;25019;42.626;23.380;2023-11-18T10:58:58;0.40;;;0.40;;
39300;SDS011;25019;42.626;23.380;2023-11-18T11:01:36;0.73;;;0.60;;
39300;SDS011;25019;42.626;23.380;2023-11-18T11:04:09;1.17;;;0.80;;
39300;SDS011;25019;42.626;23.380;2023-11-18T11:06:45;0.90;;;0.73;;
39300;SDS011;25019;42.626;23.380;2023-11-18T11:09:17;0.70;;;0.60;;
39300;SDS011;25019;42.626;23.380;2023-11-18T11:11:46;1.00;;;0.50;;
39300;SDS011;25019;42.626;23.380;2023-11-18T11:14:14;1.60;;;0.90;;
39300;SDS011;25019;42.626;23.380;2023-11-18T11:16:47;1.47;;;0.80;;
39300;SDS011;25019;42.626;23.380;2023-11-18T11:22:04;0.83;;;0.60;;
39300;SDS011;25019;42.626;23.380;2023-11-18T11:27:43;0.70;;;0.50;;
39300;SDS011;25019;42.626;23.380;2023-11-18T11:30:33;0.80;;;0.50;;
39300;SDS011;25019;42.626;23.380;2023-11-18T11:35:31;0.70;;;0.67;;
39300;SDS011;25019;42.626;23.380;2023-11-18T11:38:02;2.00;;;0.90;;
39300;SDS011;25019;42.626;23.380;2023-11-18T11:40:37;1.43;;;0.80;;
39300;SDS011;25019;42.626;23.380;2023-11-18T11:43:04;1.63;;;0.93;;
39300;SDS011;25019;42.626;23.380;2023-11-18T11:45:34;1.10;;;1.00;;
39300;SDS011;25019;42.626;23.380;2023-11-18T11:48:02;1.87;;;0.60;;
39300;SDS011;25019;42.626;23.380;2023-11-18T11:51:02;1.67;;;0.87;;
39300;SDS011;25019;42.626;23.380;2023-11-18T11:53:33;0.67;;;0.67;;
39300;SDS011;25019;42.626;23.380;2023-11-18T11:56:04;1.07;;;0.67;;
39300;SDS011;25019;42.626;23.380;2023-11-18T11:58:33;2.10;;;0.90;;
39300;SDS011;25019;42.626;23.380;2023-11-18T12:01:14;1.20;;;0.87;;
39300;SDS011;25019;42.626;23.380;2023-11-18T12:03:48;1.00;;;0.80;;
39300;SDS011;25019;42.626;23.380;2023-11-18T12:06:18;0.90;;;0.70;;
39300;SDS011;25019;42.626;23.380;2023-11-18T12:08:51;0.40;;;0.40;;
39300;SDS011;25019;42.626;23.380;2023-11-18T12:11:19;0.73;;;0.70;;
39300;SDS011;25019;42.626;23.380;2023-11-18T12:14:01;2.13;;;0.77;;
39300;SDS011;25019;42.626;23.380;2023-11-18T12:17:02;0.40;;;0.40;;
39300;SDS011;25019;42.626;23.380;2023-11-18T12:19:38;0.87;;;0.60;;
39300;SDS011;25019;42.626;23.380;2023-11-18T12:22:15;0.57;;;0.57;;
39300;SDS011;25019;42.626;23.380;2023-11-18T12:24:45;1.73;;;0.90;;
39300;SDS011;25019;42.626;23.380;2023-11-18T12:27:40;0.73;;;0.50;;
39300;SDS011;25019;42.626;23.380;2023-11-18T12:41:06;0.90;;;0.80;;
39300;SDS011;25019;42.626;23.380;2023-11-18T12:46:52;0.97;;;0.80;;
39300;SDS011;25019;42.626;23.380;2023-11-18T12:49:46;0.80;;;0.70;;
39300;SDS011;25019;42.626;23.380;2023-11-18T12:52:20;2.43;;;0.50;;
39300;SDS011;25019;42.626;23.380;2023-11-18T12:54:47;0.97;;;0.60;;
39300;SDS011;25019;42.626;23.380;2023-11-18T12:57:16;0.70;;;0.60;;
39300;SDS011;25019;42.626;23.380;2023-11-18T12:59:47;0.57;;;0.50;;
39300;SDS011;25019;42.626;23.380;2023-11-18T13:02:15;1.23;;;0.70;;
39300;SDS011;25019;42.626;23.380;2023-11-18T13:04:45;1.20;;;0.73;;
39300;SDS011;25019;42.626;23.380;2023-11-18T13:07:15;1.03;;;0.60;;
39300;SDS011;25019;42.626;23.380;2023-11-18T13:09:46;1.67;;;0.97;;
39300;SDS011;25019;42.626;23.380;2023-11-18T13:12:12;2.83;;;1.00;;
39300;SDS011;25019;42.626;23.380;2023-11-18T13:14:44;0.77;;;0.77;;
39300;SDS011;25019;42.626;23.380;2023-11-18T13:17:11;1.07;;;0.90;;
39300;SDS011;25019;42.626;23.380;2023-11-18T13:19:42;0.80;;;0.80;;
39300;SDS011;25019;42.626;23.380;2023-11-18T13:22:10;7.80;;;1.23;;
39300;SDS011;25019;42.626;23.380;2023-11-18T13:24:37;12.90;;;1.77;;
39300;SDS011;25019;42.626;23.380;2023-11-18T13:27:06;0.70;;;0.70;;
39300;SDS011;25019;42.626;23.380;2023-11-18T13:29:37;0.70;;;0.70;;
39300;SDS011;25019;42.626;23.380;2023-11-18T13:32:07;1.20;;;1.00;;
39300;SDS011;25019;42.626;23.380;2023-11-18T13:34:35;1.37;;;1.20;;
39300;SDS011;25019;42.626;23.380;2023-11-18T13:37:05;1.77;;;1.23;;
39300;SDS011;25019;42.626;23.380;2023-11-18T13:39:32;1.07;;;0.97;;
39300;SDS011;25019;42.626;23.380;2023-11-18T13:42:01;0.80;;;0.80;;
39300;SDS011;25019;42.626;23.380;2023-11-18T13:44:44;0.80;;;0.60;;
39300;SDS011;25019;42.626;23.380;2023-11-18T13:47:11;2.33;;;1.03;;
39300;SDS011;25019;42.626;23.380;2023-11-18T13:49:37;1.70;;;1.20;;
39300;SDS011;25019;42.626;23.380;2023-11-18T13:52:06;2.50;;;0.87;;
39300;SDS011;25019;42.626;23.380;2023-11-18T13:54:34;1.33;;;1.13;;
39300;SDS011;25019;42.626;23.380;2023-11-18T13:57:01;1.10;;;1.00;;
39300;SDS011;25019;42.626;23.380;2023-11-18T13:59:28;1.73;;;1.00;;
39300;SDS011;25019;42.626;23.380;2023-11-18T14:01:55;1.13;;;1.03;;
39300;SDS011;25019;42.626;23.380;2023-11-18T14:04:27;4.33;;;1.40;;
39300;SDS011;25019;42.626;23.380;2023-11-18T14:06:57;1.83;;;1.10;;
39300;SDS011;25019;42.626;23.380;2023-11-18T14:09:24;2.70;;;1.20;;
39300;SDS011;25019;42.626;23.380;2023-11-18T14:11:53;1.30;;;1.20;;
39300;SDS011;25019;42.626;23.380;2023-11-18T14:14:22;1.50;;;1.17;;
39300;SDS011;25019;42.626;23.380;2023-11-18T14:16:50;1.30;;;1.20;;
39300;SDS011;25019;42.626;23.380;2023-11-18T14:19:19;1.97;;;1.30;;
39300;SDS011;25019;42.626;23.380;2023-11-18T14:21:44;2.23;;;1.20;;
39300;SDS011;25019;42.626;23.380;2023-11-18T14:24:11;1.40;;;1.00;;
39300;SDS011;25019;42.626;23.380;2023-11-18T14:26:37;2.00;;;1.40;;
39300;SDS011;25019;42.626;23.380;2023-11-18T14:29:05;1.77;;;1.37;;
39300;SDS011;25019;42.626;23.380;2023-11-18T14:31:32;1.63;;;1.20;;
39300;SDS011;25019;42.626;23.380;2023-11-18T14:33:59;0.97;;;0.93;;
39300;SDS011;25019;42.626;23.380;2023-11-18T14:36:25;1.43;;;1.30;;
39300;SDS011;25019;42.626;23.380;2023-11-18T14:38:52;1.47;;;1.20;;
39300;SDS011;25019;42.626;23.380;2023-11-18T14:41:18;1.60;;;1.40;;
39300;SDS011;25019;42.626;23.380;2023-11-18T14:43:45;2.20;;;1.90;;
39300;SDS011;25019;42.626;23.380;2023-11-18T14:46:11;2.93;;;2.00;;
39300;SDS011;25019;42.626;23.380;2023-11-18T14:48:38;1.77;;;1.60;;
39300;SDS011;25019;42.626;23.380;2023-11-18T14:51:04;2.00;;;1.80;;
39300;SDS011;25019;42.626;23.380;2023-11-18T14:53:32;2.63;;;1.60;;
39300;SDS011;25019;42.626;23.380;2023-11-18T14:55:59;2.83;;;1.47;;
39300;SDS011;25019;42.626;23.380;2023-11-18T14:58:25;2.47;;;1.57;;
39300;SDS011;25019;42.626;23.380;2023-11-18T15:00:51;1.90;;;1.70;;
39300;SDS011;25019;42.626;23.380;2023-11-18T15:03:17;1.37;;;1.27;;
39300;SDS011;25019;42.626;23.380;2023-11-18T15:05:43;2.33;;;1.50;;
39300;SDS011;25019;42.626;23.380;2023-11-18T15:08:11;1.60;;;1.23;;
39300;SDS011;25019;42.626;23.380;2023-11-18T15:10:39;3.30;;;1.70;;
39300;SDS011;25019;42.626;23.380;2023-11-18T15:13:07;2.97;;;1.50;;
39300;SDS011;25019;42.626;23.380;2023-11-18T15:15:38;1.93;;;1.57;;
39300;SDS011;25019;42.626;23.380;2023-11-18T15:18:04;3.00;;;2.07;;